首页
METAR-TAF:

METAR-TAF

机场 :

腓特烈港机场

腓特烈港, 德国

纬度: 47-40N, 经度: 009-31E, 海拔: 416米

当前天气观测

该预报发布于14分钟前的01:20 UTC
风速4节,风向东转东北
温度 4°C
湿度 93%
气压 1017 hPa
能见度10公里或以上

METAR: EDNY 170120Z AUTO 07004KT 9999 // NCD 04/03 Q1017

时间: 03:34 (01:34 UTC)

预报

该预报发布于2小时和34分钟前的23:00 UTC
预报有效从17日的 00点(UTC)到 17日的 24点(UTC)
风速2节,风向多变
能见度10公里或以上
1500米以下无云,无积雨云
短暂存在
从 17日的 00点(UTC)到 17日的 07点(UTC)
能見度: 2500
碎片雾
短暂存在
从 17日的 11点(UTC)到 17日的 16点(UTC)
风速5节,风向西南

TAF: EDNY 162300Z 1700/1724 VRB02KT CAVOK TEMPO 1700/1707 2500 BCFG TEMPO 1711/1716 23005KT

超过4000个机场的气象观测和天气预报(METAR&TAF报告)。

可查询的气象台以黄色和红色小点在地图上表示。

将鼠标移到小点上方,可查看气象台名称。

然后点击查看天气观测和预报。

如需切换地图:点击带黑十字的绿色按钮放大地图;点击带横线的绿色按钮缩小地图;或者点击绿色箭头查看邻近地区的地图。


METAR-TAF: